createdAt,value
2022-12-11T00:02:14.067Z,87.26
2022-12-11T00:04:40.813Z,87.24
2022-12-11T00:07:07.516Z,87.20
2022-12-11T00:09:34.421Z,87.23
2022-12-11T00:12:02.546Z,87.29
2022-12-11T00:14:29.900Z,87.12
2022-12-11T00:16:56.683Z,87.13
2022-12-11T00:19:23.691Z,87.31
2022-12-11T00:21:50.500Z,87.52
2022-12-11T00:24:17.368Z,87.33
2022-12-11T00:26:44.087Z,87.89
2022-12-11T00:29:14.648Z,87.90
2022-12-11T00:31:42.590Z,88.07
2022-12-11T00:34:09.819Z,87.87
2022-12-11T00:36:36.526Z,87.83
2022-12-11T00:39:04.242Z,88.10
2022-12-11T00:41:31.544Z,88.45
2022-12-11T00:43:58.338Z,88.23
2022-12-11T00:46:25.294Z,88.63
2022-12-11T00:48:52.711Z,88.64
2022-12-11T00:51:19.652Z,88.38
2022-12-11T00:53:46.488Z,88.06
2022-12-11T00:56:19.154Z,88.28
2022-12-11T00:58:47.695Z,88.18
2022-12-11T01:01:18.282Z,88.30
2022-12-11T01:03:45.201Z,88.26
2022-12-11T01:06:18.471Z,88.36
2022-12-11T01:08:46.652Z,88.60
2022-12-11T01:11:15.652Z,88.59
2022-12-11T01:13:43.176Z,88.49
2022-12-11T01:16:15.458Z,88.44
2022-12-11T01:18:42.865Z,88.71
2022-12-11T01:21:12.030Z,88.67
2022-12-11T01:23:39.200Z,88.73
2022-12-11T01:26:08.572Z,88.74
2022-12-11T01:28:35.375Z,89.11
2022-12-11T01:31:02.240Z,89.20
2022-12-11T01:33:29.258Z,89.32
2022-12-11T01:35:56.114Z,89.39
2022-12-11T01:38:22.851Z,89.19
2022-12-11T01:40:51.697Z,89.49
2022-12-11T01:43:19.215Z,89.47
2022-12-11T01:45:49.006Z,89.31
2022-12-11T01:48:25.857Z,89.38
2022-12-11T01:50:59.351Z,89.36
2022-12-11T01:53:33.879Z,89.29
2022-12-11T01:56:02.207Z,89.31
2022-12-11T01:58:57.731Z,89.04
2022-12-11T02:01:36.954Z,88.95
2022-12-11T02:04:04.726Z,89.24
2022-12-11T02:06:43.476Z,88.67
2022-12-11T02:09:14.373Z,88.87
2022-12-11T02:12:00.853Z,88.58
2022-12-11T02:14:48.777Z,88.46
2022-12-11T02:17:42.430Z,88.47
2022-12-11T02:20:31.686Z,88.63
2022-12-11T02:23:13.894Z,88.48
2022-12-11T02:26:04.737Z,88.07
2022-12-11T02:28:43.890Z,88.30
2022-12-11T02:31:38.737Z,88.42
2022-12-11T02:34:20.475Z,88.41
2022-12-11T02:36:57.263Z,88.26
2022-12-11T02:39:27.205Z,88.31
2022-12-11T02:41:55.373Z,88.56
2022-12-11T02:44:29.666Z,88.20
2022-12-11T02:46:58.804Z,88.19
2022-12-11T02:49:28.334Z,88.39
2022-12-11T02:51:57.209Z,88.18
2022-12-11T02:54:31.249Z,88.30
2022-12-11T02:57:05.763Z,88.16
2022-12-11T02:59:50.406Z,88.14
2022-12-11T03:02:18.970Z,88.03
2022-12-11T03:04:47.669Z,88.22
2022-12-11T03:07:19.895Z,88.37
2022-12-11T03:09:48.704Z,88.41
2022-12-11T03:12:24.364Z,88.36
2022-12-11T03:14:51.343Z,88.59
2022-12-11T03:17:22.303Z,88.42
2022-12-11T03:20:07.987Z,88.62
2022-12-11T03:22:52.284Z,88.60
2022-12-11T03:25:45.006Z,88.87
2022-12-11T03:28:19.541Z,88.81
2022-12-11T03:30:49.974Z,88.96
2022-12-11T03:33:29.719Z,88.71
2022-12-11T03:36:05.606Z,88.79
2022-12-11T03:38:38.081Z,88.79
2022-12-11T03:41:07.475Z,89.32
2022-12-11T03:43:35.655Z,88.97
2022-12-11T03:46:02.867Z,89.03
2022-12-11T03:48:34.227Z,88.99
2022-12-11T03:51:05.009Z,89.02
2022-12-11T03:53:34.653Z,89.20
2022-12-11T03:56:04.327Z,89.21
2022-12-11T03:58:31.289Z,89.52
2022-12-11T04:00:58.427Z,89.39
2022-12-11T04:03:25.276Z,89.61
2022-12-11T04:05:53.639Z,89.67
2022-12-11T04:08:21.411Z,89.78
2022-12-11T04:10:48.861Z,89.75
2022-12-11T04:13:15.591Z,89.94
2022-12-11T04:15:42.505Z,89.84
2022-12-11T04:18:29.115Z,90.11
2022-12-11T04:21:15.249Z,90.23
2022-12-11T04:24:00.728Z,90.28
2022-12-11T04:26:27.596Z,90.65
2022-12-11T04:28:54.609Z,90.47
2022-12-11T04:31:23.120Z,90.31
2022-12-11T04:33:50.529Z,90.21
2022-12-11T04:36:17.836Z,90.28
2022-12-11T04:38:44.616Z,90.27
2022-12-11T04:41:14.127Z,90.33
2022-12-11T04:43:40.896Z,90.17
2022-12-11T04:46:08.956Z,90.18
2022-12-11T04:48:37.020Z,90.12
2022-12-11T04:51:04.196Z,90.19
2022-12-11T04:53:31.524Z,90.41
2022-12-11T04:55:58.481Z,90.50
2022-12-11T04:58:26.236Z,90.51
2022-12-11T05:00:53.347Z,90.28
2022-12-11T05:03:20.706Z,90.48
2022-12-11T05:05:51.763Z,90.24
2022-12-11T05:08:22.372Z,90.17
2022-12-11T05:11:00.218Z,89.77
2022-12-11T05:13:28.363Z,90.25
2022-12-11T05:15:55.465Z,90.44
2022-12-11T05:18:23.043Z,90.50
2022-12-11T05:21:07.827Z,90.48
2022-12-11T05:23:34.809Z,90.53
2022-12-11T05:26:07.700Z,90.46
2022-12-11T05:28:36.515Z,90.47
2022-12-11T05:31:12.315Z,90.38
2022-12-11T05:33:39.125Z,90.62
2022-12-11T05:36:07.337Z,90.79
2022-12-11T05:38:34.374Z,90.82
2022-12-11T05:41:04.400Z,90.83
2022-12-11T05:43:33.577Z,90.93
2022-12-11T05:46:11.606Z,90.25
2022-12-11T05:48:39.323Z,90.53
2022-12-11T05:51:08.524Z,90.89
2022-12-11T05:53:37.009Z,90.62
2022-12-11T05:56:10.451Z,90.89
2022-12-11T05:58:37.250Z,91.06
2022-12-11T06:01:09.272Z,91.05
2022-12-11T06:03:36.052Z,90.95
2022-12-11T06:06:04.176Z,90.83
2022-12-11T06:08:31.075Z,90.72
2022-12-11T06:10:58.840Z,90.33
2022-12-11T06:13:25.921Z,90.28
2022-12-11T06:15:53.099Z,90.54
2022-12-11T06:18:19.912Z,90.91
2022-12-11T06:20:46.783Z,90.51
2022-12-11T06:23:13.475Z,90.35
2022-12-11T06:25:40.664Z,90.14
2022-12-11T06:28:07.611Z,90.16
2022-12-11T06:30:38.684Z,90.44
2022-12-11T06:33:06.446Z,90.46
2022-12-11T06:35:37.360Z,90.66
2022-12-11T06:38:08.621Z,90.43
2022-12-11T06:40:35.332Z,90.44
2022-12-11T06:43:02.031Z,90.25
2022-12-11T06:45:28.855Z,90.13
2022-12-11T06:47:55.806Z,89.92
2022-12-11T06:50:22.536Z,90.22
2022-12-11T06:52:49.523Z,90.25
2022-12-11T06:55:16.416Z,90.06
2022-12-11T06:57:43.111Z,90.28
2022-12-11T07:00:10.507Z,90.17
2022-12-11T07:02:37.258Z,90.27
2022-12-11T07:05:04.469Z,90.29
2022-12-11T07:07:31.337Z,90.59
2022-12-11T07:10:04.050Z,90.21
2022-12-11T07:12:34.262Z,90.36
2022-12-11T07:15:00.953Z,90.45
2022-12-11T07:17:29.591Z,90.20
2022-12-11T07:19:56.631Z,90.49
2022-12-11T07:22:23.661Z,90.57
2022-12-11T07:24:50.405Z,90.87
2022-12-11T07:27:17.183Z,90.75
2022-12-11T07:29:45.133Z,90.79
2022-12-11T07:32:12.010Z,90.69
2022-12-11T07:34:39.177Z,90.80
2022-12-11T07:37:05.942Z,90.96
2022-12-11T07:39:32.689Z,90.92
2022-12-11T07:41:59.570Z,90.88
2022-12-11T07:44:26.263Z,90.87
2022-12-11T07:46:52.958Z,91.24
2022-12-11T07:49:19.811Z,91.03
2022-12-11T07:51:46.527Z,91.05
2022-12-11T07:54:16.695Z,90.87
2022-12-11T07:56:48.617Z,91.07
2022-12-11T07:59:19.667Z,91.12
2022-12-11T08:01:46.537Z,91.32
2022-12-11T08:04:15.843Z,91.49
2022-12-11T08:06:43.901Z,91.35
2022-12-11T08:09:20.395Z,91.05
2022-12-11T08:11:50.567Z,90.95
2022-12-11T08:14:20.164Z,91.18
2022-12-11T08:16:47.430Z,90.67
2022-12-11T08:19:14.646Z,90.95
2022-12-11T08:21:41.559Z,90.77
2022-12-11T08:24:09.307Z,90.75
2022-12-11T08:26:36.620Z,90.73
2022-12-11T08:29:04.007Z,90.99
2022-12-11T08:31:30.947Z,90.85
2022-12-11T08:33:58.145Z,90.81
2022-12-11T08:36:26.118Z,90.71
2022-12-11T08:38:55.477Z,90.78
2022-12-11T08:41:25.987Z,90.23
2022-12-11T08:43:55.160Z,89.88
2022-12-11T08:46:27.330Z,89.75
2022-12-11T08:48:55.371Z,89.89
2022-12-11T08:51:24.559Z,90.06
2022-12-11T08:53:51.679Z,90.35
2022-12-11T08:56:20.630Z,90.34
2022-12-11T08:58:48.058Z,90.74
2022-12-11T09:01:22.958Z,90.96
2022-12-11T09:03:50.883Z,91.35
2022-12-11T09:06:20.905Z,91.38
2022-12-11T09:08:52.698Z,91.90
2022-12-11T09:11:26.301Z,92.04
2022-12-11T09:13:53.397Z,92.16
2022-12-11T09:16:22.702Z,92.39
2022-12-11T09:18:51.377Z,92.51
2022-12-11T09:21:21.509Z,92.73
2022-12-11T09:23:49.911Z,93.00
2022-12-11T09:26:20.216Z,92.90
2022-12-11T09:28:47.444Z,93.36
2022-12-11T09:31:20.719Z,93.71
2022-12-11T09:33:47.812Z,93.78
2022-12-11T09:36:14.581Z,93.78
2022-12-11T09:38:44.114Z,94.06
2022-12-11T09:41:22.956Z,93.91
2022-12-11T09:44:09.237Z,93.96
2022-12-11T09:46:38.117Z,93.91
2022-12-11T09:49:09.883Z,94.44
2022-12-11T09:51:43.027Z,94.30
2022-12-11T09:54:13.572Z,94.21
2022-12-11T09:56:59.484Z,94.03
2022-12-11T09:59:26.132Z,94.38
2022-12-11T10:02:43.695Z,94.05
2022-12-11T10:05:28.946Z,94.53
2022-12-11T10:08:06.626Z,94.38
2022-12-11T10:10:47.280Z,94.19
2022-12-11T10:13:35.899Z,94.40
2022-12-11T10:16:12.422Z,94.46
2022-12-11T10:18:40.401Z,94.54
2022-12-11T10:21:08.099Z,94.31
2022-12-11T10:23:51.333Z,94.19
2022-12-11T10:26:21.089Z,94.17
2022-12-11T10:28:48.481Z,94.25
2022-12-11T10:31:20.089Z,94.13
2022-12-11T10:34:03.467Z,93.74
2022-12-11T10:36:36.970Z,93.79
2022-12-11T10:39:11.150Z,93.84
2022-12-11T10:41:40.849Z,93.59
2022-12-11T10:44:17.409Z,93.30
2022-12-11T10:46:45.532Z,93.42
2022-12-11T10:49:26.763Z,93.62
2022-12-11T10:51:55.393Z,94.09
2022-12-11T10:54:38.395Z,93.90
2022-12-11T10:57:07.668Z,94.19
2022-12-11T10:59:39.534Z,93.89
2022-12-11T11:02:18.741Z,93.91
2022-12-11T11:04:45.791Z,94.08
2022-12-11T11:07:22.620Z,93.77
2022-12-11T11:09:50.046Z,94.09
2022-12-11T11:12:21.465Z,94.16
2022-12-11T11:14:59.550Z,94.09
2022-12-11T11:17:29.578Z,94.64
2022-12-11T11:20:13.001Z,94.71
2022-12-11T11:22:45.616Z,95.13
2022-12-11T11:25:18.044Z,95.18
2022-12-11T11:27:50.386Z,95.32
2022-12-11T11:30:26.535Z,95.32
2022-12-11T11:33:19.581Z,93.87
2022-12-11T11:35:56.791Z,94.20
2022-12-11T11:38:47.889Z,94.14
2022-12-11T11:41:21.156Z,94.08
2022-12-11T11:43:59.579Z,94.33
2022-12-11T11:46:29.106Z,94.46
2022-12-11T11:49:44.695Z,94.58
2022-12-11T11:52:37.936Z,94.62
2022-12-11T11:55:06.674Z,95.10
2022-12-11T11:57:45.733Z,94.79
2022-12-11T12:00:20.948Z,94.92
2022-12-11T12:02:51.325Z,94.32
2022-12-11T12:05:22.907Z,94.50
2022-12-11T12:08:01.164Z,94.38
2022-12-11T12:11:00.815Z,94.41
2022-12-11T12:13:58.315Z,94.36
2022-12-11T12:19:36.022Z,94.57
2022-12-11T12:22:21.269Z,94.64
2022-12-11T12:25:03.101Z,94.81
2022-12-11T12:27:52.798Z,94.53
2022-12-11T12:30:23.364Z,94.94
2022-12-11T12:33:08.382Z,94.85
2022-12-11T12:35:44.788Z,95.14
2022-12-11T12:38:29.104Z,95.07
2022-12-11T12:41:21.013Z,95.11
2022-12-11T12:43:55.124Z,95.12
2022-12-11T12:46:54.384Z,95.07
2022-12-11T12:49:49.057Z,95.35
2022-12-11T12:52:18.001Z,95.69
2022-12-11T12:55:07.515Z,95.27
2022-12-11T12:57:35.738Z,95.47
2022-12-11T13:00:09.542Z,95.61
2022-12-11T13:02:50.599Z,95.36
2022-12-11T13:05:28.230Z,95.50
2022-12-11T13:07:58.168Z,95.49
2022-12-11T13:10:43.408Z,95.57
2022-12-11T13:13:55.138Z,95.78
2022-12-11T13:16:34.637Z,95.79
2022-12-11T13:19:01.969Z,95.84
2022-12-11T13:21:40.649Z,95.53
2022-12-11T13:24:13.235Z,95.36
2022-12-11T13:26:41.164Z,95.62
2022-12-11T13:29:35.908Z,95.56
2022-12-11T13:32:23.779Z,95.69
2022-12-11T13:34:59.796Z,95.92
2022-12-11T13:37:41.508Z,96.18
2022-12-11T13:40:21.099Z,96.15
2022-12-11T13:42:55.759Z,96.03
2022-12-11T13:45:29.525Z,95.93
2022-12-11T13:48:00.157Z,96.23
2022-12-11T13:50:33.294Z,96.26
2022-12-11T13:53:01.623Z,96.55
2022-12-11T13:55:32.863Z,96.46
2022-12-11T13:57:59.983Z,96.31
2022-12-11T14:00:32.936Z,95.94
2022-12-11T14:03:04.465Z,95.48
2022-12-11T14:05:31.662Z,95.22
2022-12-11T14:08:10.703Z,95.05
2022-12-11T14:10:38.956Z,95.14
2022-12-11T14:13:12.852Z,95.17
2022-12-11T14:15:45.541Z,94.93
2022-12-11T14:18:25.075Z,95.00
2022-12-11T14:20:57.207Z,95.14
2022-12-11T14:23:30.693Z,94.85
2022-12-11T14:26:20.085Z,95.05
2022-12-11T14:28:47.234Z,95.32
2022-12-11T14:31:18.302Z,95.44
2022-12-11T14:33:50.482Z,95.40
2022-12-11T14:36:17.971Z,95.86
2022-12-11T14:38:49.442Z,95.80
2022-12-11T14:41:42.736Z,95.71
2022-12-11T14:44:15.692Z,96.09
2022-12-11T14:46:53.293Z,95.95
2022-12-11T14:49:38.208Z,96.12
2022-12-11T14:52:05.584Z,96.13
2022-12-11T14:54:41.692Z,95.97
2022-12-11T14:57:16.010Z,96.50
2022-12-11T14:59:47.176Z,96.13
2022-12-11T15:02:30.552Z,95.99
2022-12-11T15:05:20.851Z,96.08
2022-12-11T15:08:24.712Z,97.05
2022-12-11T15:11:09.403Z,96.43
2022-12-11T15:13:39.457Z,96.26
2022-12-11T15:16:07.813Z,96.15
2022-12-11T15:18:38.514Z,95.82
2022-12-11T15:21:09.688Z,95.52
2022-12-11T15:23:53.333Z,95.24
2022-12-11T15:26:22.262Z,95.30
2022-12-11T15:29:00.416Z,94.69
2022-12-11T15:31:30.289Z,94.37
2022-12-11T15:33:57.525Z,93.95
2022-12-11T15:36:27.302Z,93.31
2022-12-11T15:38:54.169Z,93.22
2022-12-11T15:41:21.649Z,92.52
2022-12-11T15:43:48.436Z,91.93
2022-12-11T15:46:15.477Z,91.43
2022-12-11T15:48:42.218Z,91.19
2022-12-11T15:51:09.938Z,90.84
2022-12-11T15:53:37.283Z,90.69
2022-12-11T15:56:04.289Z,90.55
2022-12-11T15:58:31.111Z,90.40
2022-12-11T16:00:58.137Z,90.13
2022-12-11T16:03:25.428Z,90.06
2022-12-11T16:05:53.305Z,89.82
2022-12-11T16:08:22.643Z,89.70
2022-12-11T16:10:51.079Z,90.09
2022-12-11T16:13:17.803Z,90.08
2022-12-11T16:15:46.972Z,89.94
2022-12-11T16:18:18.688Z,90.04
2022-12-11T16:20:46.923Z,89.95
2022-12-11T16:23:15.076Z,90.06
2022-12-11T16:25:43.308Z,90.02
2022-12-11T16:28:13.221Z,89.97
2022-12-11T16:30:40.455Z,90.15
2022-12-11T16:33:12.460Z,90.03
2022-12-11T16:35:40.174Z,90.05
2022-12-11T16:38:07.915Z,90.11
2022-12-11T16:40:34.800Z,90.10
2022-12-11T16:43:03.046Z,90.27
2022-12-11T16:45:29.769Z,90.73
2022-12-11T16:47:56.544Z,90.81
2022-12-11T16:50:24.254Z,91.04
2022-12-11T16:52:52.149Z,91.28
2022-12-11T16:55:22.332Z,90.98
2022-12-11T16:57:49.190Z,91.73
2022-12-11T17:00:16.472Z,91.94
2022-12-11T17:02:43.495Z,91.33
2022-12-11T17:05:10.928Z,91.58
2022-12-11T17:07:38.055Z,91.53
2022-12-11T17:10:05.195Z,91.66
2022-12-11T17:12:32.067Z,92.01
2022-12-11T17:14:58.869Z,91.83
2022-12-11T17:17:25.885Z,91.72
2022-12-11T17:19:52.954Z,91.47
2022-12-11T17:22:20.193Z,91.88
2022-12-11T17:24:46.949Z,91.64
2022-12-11T17:27:13.888Z,91.58
2022-12-11T17:29:40.674Z,91.49
2022-12-11T17:32:07.590Z,91.78
2022-12-11T17:34:38.189Z,91.69
2022-12-11T17:37:05.797Z,91.59
2022-12-11T17:39:33.115Z,91.64
2022-12-11T17:42:00.028Z,91.70
2022-12-11T17:44:30.556Z,91.69
2022-12-11T17:46:58.311Z,91.61
2022-12-11T17:49:25.347Z,91.83
2022-12-11T17:51:53.355Z,91.52
2022-12-11T17:54:20.278Z,91.44
2022-12-11T17:56:47.294Z,91.68
2022-12-11T17:59:14.117Z,91.54
2022-12-11T18:01:40.901Z,91.56
2022-12-11T18:04:08.999Z,91.46
2022-12-11T18:06:35.845Z,91.72
2022-12-11T18:09:02.709Z,91.45
2022-12-11T18:11:29.589Z,91.77
2022-12-11T18:13:56.641Z,91.63
2022-12-11T18:16:32.954Z,91.70
2022-12-11T18:18:59.803Z,91.69
2022-12-11T18:21:29.710Z,92.01
2022-12-11T18:23:56.843Z,91.88
2022-12-11T18:26:23.883Z,91.68
2022-12-11T18:28:51.384Z,91.55
2022-12-11T18:31:19.153Z,91.54
2022-12-11T18:33:47.493Z,91.59
2022-12-11T18:36:16.677Z,91.59
2022-12-11T18:38:44.600Z,91.86
2022-12-11T18:41:13.363Z,91.65
2022-12-11T18:43:40.800Z,91.91
2022-12-11T18:46:14.507Z,91.53
2022-12-11T18:48:42.626Z,91.53
2022-12-11T18:51:12.364Z,91.60
2022-12-11T18:53:39.782Z,91.62
2022-12-11T18:56:12.398Z,91.47
2022-12-11T18:58:39.237Z,91.66
2022-12-11T19:01:11.777Z,91.78
2022-12-11T19:03:38.915Z,91.94
2022-12-11T19:06:26.933Z,91.49
2022-12-11T19:08:53.809Z,92.22
2022-12-11T19:11:24.691Z,92.04
2022-12-11T19:13:53.988Z,92.17
2022-12-11T19:16:24.016Z,92.20
2022-12-11T19:18:51.215Z,92.08
2022-12-11T19:21:19.492Z,92.08
2022-12-11T19:23:46.845Z,92.00
2022-12-11T19:26:18.599Z,91.74
2022-12-11T19:28:45.851Z,91.80
2022-12-11T19:31:21.865Z,91.69
2022-12-11T19:33:49.236Z,91.71
2022-12-11T19:36:19.847Z,91.64
2022-12-11T19:38:46.837Z,91.61
2022-12-11T19:41:19.255Z,91.28
2022-12-11T19:43:46.487Z,91.27
2022-12-11T19:46:13.652Z,91.36
2022-12-11T19:48:41.895Z,91.36
2022-12-11T19:51:10.366Z,91.00
2022-12-11T19:53:37.989Z,91.28
2022-12-11T19:56:05.991Z,91.17
2022-12-11T19:58:33.313Z,91.24
2022-12-11T20:01:00.907Z,91.07
2022-12-11T20:03:28.434Z,91.17
2022-12-11T20:06:03.474Z,90.82
2022-12-11T20:08:46.287Z,91.30
2022-12-11T20:11:18.297Z,91.12
2022-12-11T20:13:46.962Z,91.04
2022-12-11T20:16:14.747Z,91.16
2022-12-11T20:18:41.784Z,91.27
2022-12-11T20:21:12.120Z,91.08
2022-12-11T20:23:40.621Z,91.18
2022-12-11T20:26:13.572Z,91.15
2022-12-11T20:28:40.720Z,91.39
2022-12-11T20:31:19.705Z,91.16
2022-12-11T20:33:49.044Z,91.21
2022-12-11T20:36:17.586Z,91.27
2022-12-11T20:38:44.355Z,91.38
2022-12-11T20:41:14.031Z,91.47
2022-12-11T20:43:41.230Z,91.71
2022-12-11T20:46:10.261Z,91.63
2022-12-11T20:48:38.619Z,91.69
2022-12-11T20:51:07.497Z,91.54
2022-12-11T20:53:35.183Z,91.62
2022-12-11T20:56:02.770Z,91.83
2022-12-11T20:58:29.607Z,91.94
2022-12-11T21:00:56.399Z,91.99
2022-12-11T21:03:23.133Z,91.91
2022-12-11T21:05:49.919Z,91.93
2022-12-11T21:08:16.698Z,92.21
2022-12-11T21:10:44.755Z,92.34
2022-12-11T21:13:11.575Z,92.29
2022-12-11T21:15:39.657Z,92.25
2022-12-11T21:18:07.817Z,92.28
2022-12-11T21:20:35.856Z,92.49
2022-12-11T21:23:03.807Z,92.47
2022-12-11T21:25:30.548Z,92.44
2022-12-11T21:27:57.396Z,92.46
2022-12-11T21:30:24.106Z,92.58
2022-12-11T21:32:50.827Z,92.57
2022-12-11T21:35:17.683Z,93.00
2022-12-11T21:37:44.444Z,92.94
2022-12-11T21:40:11.717Z,92.71
2022-12-11T21:42:38.460Z,92.57
2022-12-11T21:47:53.756Z,92.60
2022-12-11T21:50:21.611Z,92.47
2022-12-11T21:52:48.528Z,92.67
2022-12-11T21:55:15.405Z,92.48
2022-12-11T21:57:42.171Z,92.14
2022-12-11T22:00:09.559Z,92.42
2022-12-11T22:02:40.822Z,92.35
2022-12-11T22:05:09.130Z,92.39
2022-12-11T22:07:36.044Z,92.21
2022-12-11T22:10:03.757Z,92.42
2022-12-11T22:12:30.811Z,92.38
2022-12-11T22:14:57.744Z,91.95
2022-12-11T22:17:24.706Z,92.10
2022-12-11T22:19:54.512Z,91.88
2022-12-11T22:22:21.251Z,91.85
2022-12-11T22:24:47.990Z,92.10
2022-12-11T22:27:21.960Z,91.86
2022-12-11T22:29:50.446Z,91.69
2022-12-11T22:32:17.356Z,91.53
2022-12-11T22:34:44.038Z,91.45
2022-12-11T22:37:10.729Z,91.21
2022-12-11T22:39:38.804Z,91.29
2022-12-11T22:42:05.571Z,91.25
2022-12-11T22:44:32.314Z,91.38
2022-12-11T22:46:59.124Z,90.97
2022-12-11T22:49:25.843Z,90.89
2022-12-11T22:51:52.618Z,90.82
2022-12-11T22:54:19.381Z,90.87
2022-12-11T22:56:46.167Z,90.64
2022-12-11T22:59:12.894Z,90.75
2022-12-11T23:01:39.740Z,90.40
2022-12-11T23:04:06.638Z,90.90
2022-12-11T23:06:33.424Z,90.45
2022-12-11T23:09:01.470Z,90.28
2022-12-11T23:11:31.802Z,90.24
2022-12-11T23:13:58.584Z,90.46
2022-12-11T23:16:26.510Z,90.44
2022-12-11T23:18:55.103Z,90.31
2022-12-11T23:21:23.503Z,90.15
2022-12-11T23:23:50.939Z,90.29
2022-12-11T23:26:21.440Z,90.21
2022-12-11T23:28:48.768Z,90.21
2022-12-11T23:31:16.270Z,90.40
2022-12-11T23:33:43.011Z,90.12
2022-12-11T23:36:12.879Z,90.03
2022-12-11T23:38:40.705Z,90.00
2022-12-11T23:41:10.149Z,90.02
2022-12-11T23:43:37.852Z,90.25
2022-12-11T23:46:07.866Z,89.83
2022-12-11T23:48:34.690Z,89.20
2022-12-11T23:51:02.640Z,89.21
2022-12-11T23:53:29.706Z,88.74
2022-12-11T23:55:56.978Z,88.62
2022-12-11T23:58:23.659Z,88.61
